createdAt,value
2023-01-04T00:00:37.476Z,306.00
2023-01-04T00:01:37.397Z,310.00
2023-01-04T00:02:37.581Z,309.00
2023-01-04T00:03:37.488Z,311.00
2023-01-04T00:04:37.264Z,313.00
2023-01-04T00:05:37.216Z,314.00
2023-01-04T00:06:37.179Z,318.00
2023-01-04T00:07:37.130Z,316.00
2023-01-04T00:08:37.086Z,315.00
2023-01-04T00:09:37.047Z,313.00
2023-01-04T00:10:37.010Z,312.00
2023-01-04T00:11:36.959Z,309.00
2023-01-04T00:12:36.920Z,309.00
2023-01-04T00:13:36.877Z,308.00
2023-01-04T00:14:36.838Z,311.00
2023-01-04T00:15:36.837Z,312.00
2023-01-04T00:16:36.817Z,311.00
2023-01-04T00:17:36.705Z,309.00
2023-01-04T00:18:36.706Z,308.00
2023-01-04T00:19:36.611Z,309.00
2023-01-04T00:20:36.580Z,307.00
2023-01-04T00:21:36.534Z,306.00
2023-01-04T00:22:36.484Z,306.00
2023-01-04T00:23:36.473Z,306.00
2023-01-04T00:24:36.403Z,306.00
2023-01-04T00:25:36.365Z,306.00
2023-01-04T00:26:36.323Z,308.00
2023-01-04T00:27:36.281Z,306.00
2023-01-04T00:28:36.244Z,305.00
2023-01-04T00:29:36.192Z,304.00
2023-01-04T00:30:36.161Z,305.00
2023-01-04T00:31:36.190Z,307.00
2023-01-04T00:32:36.081Z,308.00
2023-01-04T00:33:36.047Z,308.00
2023-01-04T00:34:35.989Z,305.00
2023-01-04T00:35:45.621Z,305.00
2023-01-04T00:36:36.914Z,305.00
2023-01-04T00:37:35.878Z,307.00
2023-01-04T00:38:35.841Z,310.00
2023-01-04T00:39:35.795Z,312.00
2023-01-04T00:40:35.765Z,310.00
2023-01-04T00:41:58.071Z,309.00
2023-01-04T00:42:36.664Z,310.00
2023-01-04T00:43:35.656Z,311.00
2023-01-04T00:44:35.627Z,312.00
2023-01-04T00:45:35.531Z,312.00
2023-01-04T00:46:35.577Z,311.00
2023-01-04T00:47:35.454Z,313.00
2023-01-04T00:48:39.420Z,309.00
2023-01-04T00:49:36.364Z,308.00
2023-01-04T00:50:35.339Z,310.00
2023-01-04T00:51:35.279Z,310.00
2023-01-04T00:52:35.234Z,311.00
2023-01-04T00:53:35.200Z,310.00
2023-01-04T00:54:35.151Z,311.00
2023-01-04T00:55:35.176Z,311.00
2023-01-04T00:56:35.065Z,311.00
2023-01-04T00:57:35.016Z,313.00
2023-01-04T00:58:34.986Z,312.00
2023-01-04T00:59:34.940Z,311.00
2023-01-04T01:00:34.892Z,311.00
2023-01-04T01:01:35.260Z,312.00
2023-01-04T01:02:35.053Z,312.00
2023-01-04T01:03:38.474Z,314.00
2023-01-04T01:04:34.729Z,313.00
2023-01-04T01:05:34.682Z,314.00
2023-01-04T01:06:34.654Z,315.00
2023-01-04T01:07:34.589Z,315.00
2023-01-04T01:08:34.539Z,317.00
2023-01-04T01:09:34.507Z,316.00
2023-01-04T01:10:34.450Z,316.00
2023-01-04T01:11:34.530Z,315.00
2023-01-04T01:12:34.356Z,312.00
2023-01-04T01:13:34.320Z,311.00
2023-01-04T01:14:34.287Z,313.00
2023-01-04T01:15:34.254Z,311.00
2023-01-04T01:17:35.140Z,312.00
2023-01-04T01:18:34.091Z,311.00
2023-01-04T01:19:34.050Z,311.00
2023-01-04T01:20:34.017Z,312.00
2023-01-04T01:21:33.958Z,314.00
2023-01-04T01:22:33.913Z,314.00
2023-01-04T01:23:33.870Z,313.00
2023-01-04T01:24:33.819Z,312.00
2023-01-04T01:25:33.787Z,310.00
2023-01-04T01:26:33.758Z,310.00
2023-01-04T01:27:33.689Z,310.00
2023-01-04T01:28:33.654Z,311.00
2023-01-04T01:29:33.602Z,309.00
2023-01-04T01:30:33.559Z,309.00
2023-01-04T01:31:33.572Z,312.00
2023-01-04T01:32:33.459Z,313.00
2023-01-04T01:33:33.426Z,314.00
2023-01-04T01:34:33.374Z,313.00
2023-01-04T01:35:33.340Z,305.00
2023-01-04T01:36:33.287Z,302.00
2023-01-04T01:37:33.243Z,304.00
2023-01-04T01:38:33.184Z,309.00
2023-01-04T01:39:33.141Z,309.00
2023-01-04T01:40:33.091Z,312.00
2023-01-04T01:41:33.045Z,312.00
2023-01-04T01:42:32.999Z,309.00
2023-01-04T01:43:32.949Z,308.00
2023-01-04T01:44:32.917Z,306.00
2023-01-04T01:45:32.864Z,303.00
2023-01-04T01:46:32.912Z,303.00
2023-01-04T01:47:32.764Z,305.00
2023-01-04T01:48:32.725Z,306.00
2023-01-04T01:49:32.665Z,308.00
2023-01-04T01:50:32.618Z,306.00
2023-01-04T01:51:32.572Z,302.00
2023-01-04T01:52:32.533Z,306.00
2023-01-04T01:53:32.483Z,304.00
2023-01-04T01:54:32.431Z,305.00
2023-01-04T01:55:32.417Z,305.00
2023-01-04T01:56:32.432Z,304.00
2023-01-04T01:57:32.301Z,303.00
2023-01-04T01:58:32.255Z,304.00
2023-01-04T01:59:32.212Z,305.00
2023-01-04T02:00:32.169Z,302.00
2023-01-04T02:01:32.211Z,301.00
2023-01-04T02:02:32.303Z,302.00
2023-01-04T02:03:32.123Z,299.00
2023-01-04T02:04:32.022Z,299.00
2023-01-04T02:05:31.917Z,299.00
2023-01-04T02:06:31.871Z,300.00
2023-01-04T02:07:31.826Z,301.00
2023-01-04T02:08:31.779Z,301.00
2023-01-04T02:09:31.735Z,301.00
2023-01-04T02:10:31.686Z,302.00
2023-01-04T02:11:31.639Z,302.00
2023-01-04T02:12:31.591Z,303.00
2023-01-04T02:13:31.548Z,305.00
2023-01-04T02:14:31.509Z,305.00
2023-01-04T02:15:31.474Z,306.00
2023-01-04T02:16:31.472Z,306.00
2023-01-04T02:17:31.391Z,307.00
2023-01-04T02:18:31.348Z,305.00
2023-01-04T02:19:31.311Z,309.00
2023-01-04T02:20:31.270Z,308.00
2023-01-04T02:21:31.224Z,308.00
2023-01-04T02:22:31.193Z,307.00
2023-01-04T02:23:31.130Z,307.00
2023-01-04T02:24:31.083Z,305.00
2023-01-04T02:25:31.065Z,305.00
2023-01-04T02:26:31.011Z,306.00
2023-01-04T02:27:30.963Z,304.00
2023-01-04T02:28:30.912Z,302.00
2023-01-04T02:29:30.869Z,303.00
2023-01-04T02:30:30.825Z,301.00
2023-01-04T02:31:30.869Z,302.00
2023-01-04T02:32:30.755Z,303.00
2023-01-04T02:33:30.688Z,305.00
2023-01-04T02:34:30.646Z,306.00
2023-01-04T02:35:30.602Z,307.00
2023-01-04T02:36:30.552Z,307.00
2023-01-04T02:37:30.511Z,306.00
2023-01-04T02:38:30.458Z,301.00
2023-01-04T02:39:30.404Z,303.00
2023-01-04T02:40:30.357Z,304.00
2023-01-04T02:41:30.311Z,305.00
2023-01-04T02:42:30.262Z,304.00
2023-01-04T02:43:30.222Z,304.00
2023-01-04T02:44:30.187Z,308.00
2023-01-04T02:45:30.134Z,307.00
2023-01-04T02:46:30.102Z,308.00
2023-01-04T02:47:30.037Z,310.00
2023-01-04T02:48:29.990Z,310.00
2023-01-04T02:49:29.944Z,312.00
2023-01-04T02:50:29.895Z,307.00
2023-01-04T02:51:29.862Z,310.00
2023-01-04T02:52:29.802Z,312.00
2023-01-04T02:53:29.768Z,314.00
2023-01-04T02:54:29.720Z,314.00
2023-01-04T02:55:29.664Z,313.00
2023-01-04T02:56:29.622Z,314.00
2023-01-04T02:57:29.571Z,315.00
2023-01-04T02:58:29.524Z,314.00
2023-01-04T02:59:29.479Z,314.00
2023-01-04T03:00:29.424Z,313.00
2023-01-04T03:01:29.522Z,314.00
2023-01-04T03:02:29.537Z,314.00
2023-01-04T03:03:29.499Z,311.00
2023-01-04T03:04:29.262Z,308.00
2023-01-04T03:05:29.224Z,308.00
2023-01-04T03:06:29.173Z,307.00
2023-01-04T03:07:29.145Z,308.00
2023-01-04T03:08:29.085Z,308.00
2023-01-04T03:09:29.035Z,312.00
2023-01-04T03:10:28.989Z,312.00
2023-01-04T03:11:28.940Z,312.00
2023-01-04T03:12:28.893Z,312.00
2023-01-04T03:13:28.852Z,310.00
2023-01-04T03:14:32.165Z,309.00
2023-01-04T03:15:28.775Z,308.00
2023-01-04T03:16:28.765Z,308.00
2023-01-04T03:17:28.671Z,307.00
2023-01-04T03:18:28.628Z,305.00
2023-01-04T03:19:28.578Z,303.00
2023-01-04T03:20:28.533Z,301.00
2023-01-04T03:21:28.484Z,301.00
2023-01-04T03:22:28.434Z,302.00
2023-01-04T03:23:28.383Z,300.00
2023-01-04T03:24:28.342Z,301.00
2023-01-04T03:25:28.304Z,304.00
2023-01-04T03:26:28.265Z,305.00
2023-01-04T03:27:28.213Z,304.00
2023-01-04T03:28:28.157Z,303.00
2023-01-04T03:29:28.113Z,301.00
2023-01-04T03:30:28.072Z,301.00
2023-01-04T03:31:28.033Z,301.00
2023-01-04T03:32:27.981Z,302.00
2023-01-04T03:33:27.952Z,305.00
2023-01-04T03:34:27.880Z,304.00
2023-01-04T03:35:27.839Z,306.00
2023-01-04T03:36:27.786Z,304.00
2023-01-04T03:37:27.746Z,306.00
2023-01-04T03:38:27.700Z,307.00
2023-01-04T03:39:27.654Z,306.00
2023-01-04T03:40:27.613Z,308.00
2023-01-04T03:41:27.562Z,309.00
2023-01-04T03:42:27.516Z,311.00
2023-01-04T03:43:27.485Z,312.00
2023-01-04T03:44:27.427Z,312.00
2023-01-04T03:45:27.383Z,313.00
2023-01-04T03:46:27.391Z,313.00
2023-01-04T03:47:27.309Z,315.00
2023-01-04T03:48:27.249Z,316.00
2023-01-04T03:49:27.205Z,314.00
2023-01-04T03:50:27.151Z,313.00
2023-01-04T03:51:27.105Z,313.00
2023-01-04T03:52:27.057Z,314.00
2023-01-04T03:53:27.016Z,313.00
2023-01-04T03:54:26.959Z,313.00
2023-01-04T03:55:26.901Z,313.00
2023-01-04T03:56:26.849Z,313.00
2023-01-04T03:57:26.808Z,311.00
2023-01-04T03:58:26.753Z,310.00
2023-01-04T03:59:26.705Z,310.00
2023-01-04T04:00:26.730Z,308.00
2023-01-04T04:01:26.761Z,308.00
2023-01-04T04:02:26.590Z,307.00
2023-01-04T04:03:26.588Z,307.00
2023-01-04T04:04:26.600Z,308.00
2023-01-04T04:05:26.424Z,309.00
2023-01-04T04:06:26.375Z,307.00
2023-01-04T04:07:26.337Z,308.00
2023-01-04T04:08:26.289Z,307.00
2023-01-04T04:09:26.244Z,306.00
2023-01-04T04:10:26.190Z,307.00
2023-01-04T04:11:26.154Z,304.00
2023-01-04T04:12:26.098Z,305.00
2023-01-04T04:13:26.068Z,307.00
2023-01-04T04:14:26.011Z,306.00
2023-01-04T04:15:25.965Z,305.00
2023-01-04T04:16:25.965Z,302.00
2023-01-04T04:17:25.879Z,303.00
2023-01-04T04:18:25.831Z,299.00
2023-01-04T04:19:25.792Z,298.00
2023-01-04T04:20:25.736Z,299.00
2023-01-04T04:21:25.695Z,303.00
2023-01-04T04:22:25.661Z,304.00
2023-01-04T04:23:25.600Z,305.00
2023-01-04T04:24:25.567Z,307.00
2023-01-04T04:25:25.506Z,306.00
2023-01-04T04:26:25.462Z,303.00
2023-01-04T04:27:25.418Z,304.00
2023-01-04T04:28:25.366Z,302.00
2023-01-04T04:29:25.318Z,306.00
2023-01-04T04:30:25.273Z,307.00
2023-01-04T04:31:25.302Z,305.00
2023-01-04T04:32:25.173Z,305.00
2023-01-04T04:33:25.187Z,304.00
2023-01-04T04:34:25.073Z,305.00
2023-01-04T04:35:25.067Z,307.00
2023-01-04T04:36:24.980Z,306.00
2023-01-04T04:37:24.947Z,304.00
2023-01-04T04:38:24.897Z,303.00
2023-01-04T04:39:24.971Z,305.00
2023-01-04T04:40:24.790Z,307.00
2023-01-04T04:41:24.747Z,307.00
2023-01-04T04:42:24.690Z,307.00
2023-01-04T04:43:24.651Z,307.00
2023-01-04T04:44:24.613Z,306.00
2023-01-04T04:45:24.557Z,306.00
2023-01-04T04:46:24.596Z,305.00
2023-01-04T04:47:24.453Z,304.00
2023-01-04T04:48:24.402Z,302.00
2023-01-04T04:49:24.353Z,304.00
2023-01-04T04:50:24.303Z,302.00
2023-01-04T04:51:24.263Z,302.00
2023-01-04T04:52:24.202Z,306.00
2023-01-04T04:53:24.154Z,308.00
2023-01-04T04:54:24.102Z,308.00
2023-01-04T04:55:24.047Z,307.00
2023-01-04T04:56:23.997Z,309.00
2023-01-04T04:57:23.948Z,308.00
2023-01-04T04:58:23.905Z,308.00
2023-01-04T04:59:23.853Z,309.00
2023-01-04T05:00:23.812Z,309.00
2023-01-04T05:01:23.897Z,308.00
2023-01-04T05:02:23.853Z,304.00
2023-01-04T05:03:23.716Z,304.00
2023-01-04T05:04:23.610Z,303.00
2023-01-04T05:05:23.553Z,303.00
2023-01-04T05:06:23.513Z,305.00
2023-01-04T05:07:23.467Z,304.00
2023-01-04T05:08:23.407Z,304.00
2023-01-04T05:09:23.354Z,303.00
2023-01-04T05:10:23.307Z,305.00
2023-01-04T05:11:23.276Z,304.00
2023-01-04T05:12:23.228Z,302.00
2023-01-04T05:13:23.160Z,301.00
2023-01-04T05:14:23.115Z,300.00
2023-01-04T05:15:23.068Z,300.00
2023-01-04T05:16:23.071Z,301.00
2023-01-04T05:17:22.978Z,301.00
2023-01-04T05:18:22.920Z,303.00
2023-01-04T05:19:22.891Z,302.00
2023-01-04T05:20:22.836Z,301.00
2023-01-04T05:21:22.795Z,302.00
2023-01-04T05:22:22.750Z,300.00
2023-01-04T05:23:22.739Z,296.00
2023-01-04T05:24:22.670Z,298.00
2023-01-04T05:25:22.619Z,298.00
2023-01-04T05:26:22.573Z,295.00
2023-01-04T05:27:22.522Z,297.00
2023-01-04T05:28:22.475Z,301.00
2023-01-04T05:29:22.428Z,303.00
2023-01-04T05:30:22.375Z,300.00
2023-01-04T05:31:22.416Z,298.00
2023-01-04T05:32:22.285Z,297.00
2023-01-04T05:33:22.250Z,297.00
2023-01-04T05:34:22.613Z,298.00
2023-01-04T05:35:22.158Z,299.00
2023-01-04T05:36:22.112Z,299.00
2023-01-04T05:37:22.050Z,298.00
2023-01-04T05:38:22.016Z,299.00
2023-01-04T05:39:21.966Z,299.00
2023-01-04T05:40:21.933Z,299.00
2023-01-04T05:41:21.857Z,299.00
2023-01-04T05:42:21.811Z,302.00
2023-01-04T05:43:21.772Z,298.00
2023-01-04T05:44:21.739Z,302.00
2023-01-04T05:45:21.681Z,303.00
2023-01-04T05:46:21.712Z,305.00
2023-01-04T05:47:21.617Z,305.00
2023-01-04T05:48:21.549Z,303.00
2023-01-04T05:49:21.544Z,304.00
2023-01-04T05:50:21.466Z,303.00
2023-01-04T05:51:21.421Z,303.00
2023-01-04T05:52:21.377Z,302.00
2023-01-04T05:53:21.334Z,304.00
2023-01-04T05:54:21.776Z,306.00
2023-01-04T05:55:21.246Z,304.00
2023-01-04T05:56:21.213Z,302.00
2023-01-04T05:57:21.160Z,302.00
2023-01-04T05:58:21.104Z,303.00
2023-01-04T05:59:21.052Z,300.00
2023-01-04T06:00:21.009Z,300.00
2023-01-04T06:01:21.037Z,301.00
2023-01-04T06:02:20.956Z,303.00
2023-01-04T06:03:21.033Z,303.00
2023-01-04T06:04:20.821Z,303.00
2023-01-04T06:05:20.758Z,303.00
2023-01-04T06:06:20.704Z,304.00
2023-01-04T06:07:20.675Z,306.00
2023-01-04T06:08:20.615Z,308.00
2023-01-04T06:09:20.566Z,305.00
2023-01-04T06:10:20.512Z,305.00
2023-01-04T06:11:27.199Z,307.00
2023-01-04T06:12:21.440Z,305.00
2023-01-04T06:13:20.380Z,305.00
2023-01-04T06:14:20.339Z,306.00
2023-01-04T06:15:20.306Z,306.00
2023-01-04T06:18:13.096Z,318.00
2023-01-04T08:37:05.535Z,311.00
2023-01-04T08:38:28.854Z,311.00
2023-01-04T08:39:06.477Z,309.00
2023-01-04T08:40:05.450Z,310.00
2023-01-04T08:41:30.796Z,310.00
2023-01-04T08:42:20.245Z,309.00
2023-01-04T08:43:06.377Z,308.00
2023-01-04T08:44:05.363Z,309.00
2023-01-04T08:45:05.331Z,309.00
2023-01-04T08:46:05.367Z,309.00
2023-01-04T08:47:05.448Z,310.00
2023-01-04T08:48:05.274Z,310.00
2023-01-04T08:49:05.232Z,309.00
2023-01-04T08:50:10.383Z,309.00
2023-01-04T08:51:06.199Z,308.00
2023-01-04T08:52:05.175Z,307.00
2023-01-04T08:53:05.164Z,306.00
2023-01-04T08:54:05.130Z,303.00
2023-01-04T08:55:12.060Z,303.00
2023-01-04T08:56:06.101Z,302.00
2023-01-04T08:57:05.061Z,302.00
2023-01-04T08:58:05.066Z,302.00
2023-01-04T08:59:05.019Z,302.00
2023-01-04T09:00:05.004Z,305.00
2023-01-04T09:01:04.985Z,305.00
2023-01-04T09:02:06.201Z,305.00
2023-01-04T09:03:05.078Z,306.00
2023-01-04T09:04:04.981Z,306.00
2023-01-04T09:05:04.925Z,305.00
2023-01-04T09:06:04.889Z,306.00
2023-01-04T09:07:04.877Z,305.00
2023-01-04T09:08:04.853Z,306.00
2023-01-04T09:09:04.830Z,308.00
2023-01-04T09:10:04.817Z,306.00
2023-01-04T09:11:04.803Z,307.00
2023-01-04T09:12:04.778Z,306.00
2023-01-04T09:13:04.760Z,307.00
2023-01-04T09:14:08.348Z,306.00
2023-01-04T09:15:04.728Z,308.00
2023-01-04T09:16:04.766Z,307.00
2023-01-04T09:17:04.666Z,309.00
2023-01-04T09:18:31.016Z,312.00
2023-01-04T09:19:05.662Z,312.00
2023-01-04T09:20:04.615Z,311.00
2023-01-04T09:21:04.584Z,310.00
2023-01-04T09:22:04.592Z,310.00
2023-01-04T09:23:04.584Z,309.00
2023-01-04T09:24:04.541Z,308.00
2023-01-04T09:25:04.503Z,309.00
2023-01-04T09:26:09.296Z,310.00
2023-01-04T09:27:05.473Z,310.00
2023-01-04T09:28:04.464Z,310.00
2023-01-04T09:29:04.426Z,309.00
2023-01-04T09:30:04.410Z,310.00
2023-01-04T09:31:04.424Z,310.00
2023-01-04T09:32:04.398Z,307.00
2023-01-04T09:33:04.349Z,307.00
2023-01-04T09:34:13.973Z,305.00
2023-01-04T09:35:05.308Z,302.00
2023-01-04T09:36:04.281Z,301.00
2023-01-04T09:37:04.257Z,298.00
2023-01-04T09:38:04.248Z,298.00
2023-01-04T09:39:04.206Z,296.00
2023-01-04T09:40:04.211Z,296.00
2023-01-04T09:41:04.178Z,297.00
2023-01-04T09:42:04.300Z,296.00
2023-01-04T09:43:20.652Z,295.00
2023-01-04T09:44:05.115Z,297.00
2023-01-04T09:45:23.045Z,297.00
2023-01-04T09:46:05.243Z,298.00
2023-01-04T09:47:04.150Z,297.00
2023-01-04T09:48:04.014Z,296.00
2023-01-04T09:49:03.987Z,297.00
2023-01-04T09:50:03.972Z,301.00
2023-01-04T09:51:03.959Z,301.00
2023-01-04T09:52:03.924Z,302.00
2023-01-04T09:53:03.900Z,301.00
2023-01-04T09:54:03.940Z,300.00
2023-01-04T09:55:36.566Z,302.00
2023-01-04T09:56:04.821Z,299.00
2023-01-04T09:57:03.803Z,299.00
2023-01-04T09:58:03.777Z,300.00
2023-01-04T09:59:03.754Z,299.00
2023-01-04T10:00:03.728Z,300.00
2023-01-04T10:01:03.795Z,299.00
2023-01-04T10:02:03.999Z,301.00
2023-01-04T10:03:03.719Z,301.00
2023-01-04T10:04:03.633Z,302.00
2023-01-04T10:05:03.608Z,301.00
2023-01-04T10:06:03.588Z,297.00
2023-01-04T10:07:05.336Z,299.00
2023-01-04T10:08:03.550Z,298.00
2023-01-04T10:09:03.509Z,299.00
2023-01-04T10:10:03.506Z,299.00
2023-01-04T10:11:03.501Z,302.00
2023-01-04T10:12:03.462Z,303.00
2023-01-04T10:13:03.443Z,304.00
2023-01-04T10:14:03.445Z,304.00
2023-01-04T10:15:03.411Z,304.00
2023-01-04T10:16:03.421Z,304.00
2023-01-04T10:17:35.498Z,304.00
2023-01-04T10:19:36.929Z,305.00
2023-01-04T10:21:34.525Z,304.00
2023-01-04T10:22:04.306Z,302.00
2023-01-04T10:23:03.222Z,303.00
2023-01-04T10:24:03.199Z,305.00
2023-01-04T10:25:03.174Z,307.00
2023-01-04T10:26:03.155Z,306.00
2023-01-04T10:27:03.147Z,308.00
2023-01-04T10:28:03.117Z,308.00
2023-01-04T10:29:03.101Z,308.00
2023-01-04T10:30:03.074Z,306.00
2023-01-04T10:31:39.898Z,305.00
2023-01-04T10:32:04.085Z,304.00
2023-01-04T10:33:03.005Z,302.00
2023-01-04T10:34:02.996Z,303.00
2023-01-04T10:35:03.001Z,304.00
2023-01-04T10:36:02.960Z,306.00
2023-01-04T10:37:02.930Z,306.00
2023-01-04T10:38:02.928Z,304.00
2023-01-04T10:39:02.891Z,304.00
2023-01-04T10:40:02.866Z,304.00
2023-01-04T10:41:02.855Z,305.00
2023-01-04T10:42:02.819Z,302.00
2023-01-04T10:43:02.808Z,302.00
2023-01-04T10:44:12.280Z,303.00
2023-01-04T10:45:08.666Z,302.00
2023-01-04T10:46:03.734Z,303.00
2023-01-04T10:47:02.751Z,304.00
2023-01-04T10:48:02.682Z,304.00
2023-01-04T10:49:02.663Z,305.00
2023-01-04T10:50:02.644Z,307.00
2023-01-04T10:51:09.925Z,308.00
2023-01-04T10:52:03.606Z,305.00
2023-01-04T10:53:02.601Z,303.00
2023-01-04T10:54:02.548Z,302.00
2023-01-04T10:55:02.530Z,304.00
2023-01-04T10:56:23.736Z,306.00
2023-01-04T10:57:06.718Z,304.00
2023-01-04T10:58:02.476Z,307.00
2023-01-04T10:59:02.462Z,309.00
2023-01-04T11:00:02.482Z,311.00
2023-01-04T11:01:02.428Z,311.00
2023-01-04T11:02:02.611Z,312.00
2023-01-04T11:03:08.411Z,313.00
2023-01-04T11:04:03.350Z,311.00
2023-01-04T11:05:02.333Z,310.00
2023-01-04T11:06:02.303Z,309.00
2023-01-04T11:07:02.283Z,311.00
2023-01-04T11:08:02.268Z,311.00
2023-01-04T11:09:02.239Z,310.00
2023-01-04T11:10:02.295Z,314.00
2023-01-04T11:11:02.205Z,313.00
2023-01-04T11:12:02.181Z,315.00
2023-01-04T11:13:02.150Z,315.00
2023-01-04T11:14:02.131Z,314.00
2023-01-04T11:15:02.097Z,317.00
2023-01-04T13:01:59.784Z,305.00
2023-01-04T13:04:05.049Z,307.00
2023-01-04T13:06:00.678Z,306.00
2023-01-04T13:06:59.691Z,302.00
2023-01-04T13:07:59.596Z,304.00
2023-01-04T13:08:59.561Z,302.00
2023-01-04T13:09:59.527Z,300.00
2023-01-04T13:10:59.507Z,302.00
2023-01-04T13:11:59.480Z,302.00
2023-01-04T13:12:59.483Z,302.00
2023-01-04T13:13:59.440Z,302.00
2023-01-04T13:14:59.420Z,301.00
2023-01-04T13:15:59.391Z,302.00
2023-01-04T13:16:59.410Z,300.00
2023-01-04T13:17:59.362Z,304.00
2023-01-04T13:18:59.336Z,300.00
2023-01-04T13:19:59.324Z,299.00
2023-01-04T13:20:59.303Z,300.00
2023-01-04T13:21:59.282Z,300.00
2023-01-04T13:22:59.265Z,301.00
2023-01-04T13:23:59.237Z,299.00
2023-01-04T13:24:59.477Z,300.00
2023-01-04T13:25:59.198Z,300.00
2023-01-04T13:26:59.176Z,302.00
2023-01-04T13:27:59.175Z,302.00
2023-01-04T13:28:59.137Z,302.00
2023-01-04T13:29:59.128Z,301.00
2023-01-04T13:30:59.164Z,303.00
2023-01-04T13:31:59.136Z,300.00
2023-01-04T13:33:25.772Z,299.00
2023-01-04T13:34:00.072Z,298.00
2023-01-04T13:34:59.038Z,300.00
2023-01-04T13:35:59.013Z,302.00
2023-01-04T13:36:59.007Z,302.00
2023-01-04T13:37:58.977Z,303.00
2023-01-04T13:38:58.960Z,302.00
2023-01-04T13:39:58.947Z,303.00
2023-01-04T13:40:58.925Z,302.00
2023-01-04T13:41:58.925Z,302.00
2023-01-04T13:42:59.000Z,300.00
2023-01-04T13:43:58.862Z,299.00
2023-01-04T13:46:05.829Z,303.00
2023-01-04T13:46:59.890Z,300.00
2023-01-04T13:47:58.836Z,301.00
2023-01-04T13:48:58.768Z,300.00
2023-01-04T13:49:58.742Z,301.00
2023-01-04T13:50:58.726Z,298.00
2023-01-04T13:52:17.950Z,301.00
2023-01-04T13:53:07.442Z,300.00
2023-01-04T13:53:59.688Z,300.00
2023-01-04T13:54:58.673Z,302.00
2023-01-04T13:55:58.654Z,304.00
2023-01-04T13:56:58.632Z,305.00
2023-01-04T13:57:58.618Z,303.00
2023-01-04T13:58:58.604Z,301.00
2023-01-04T13:59:58.567Z,302.00
2023-01-04T14:00:58.670Z,302.00
2023-01-04T14:01:58.626Z,302.00
2023-01-04T14:02:58.834Z,301.00
2023-01-04T14:03:58.560Z,299.00
2023-01-04T14:04:58.475Z,300.00
2023-01-04T14:06:02.882Z,296.00
2023-01-04T14:06:59.447Z,297.00
2023-01-04T14:07:58.416Z,298.00
2023-01-04T14:08:58.416Z,299.00
2023-01-04T14:09:58.413Z,302.00
2023-01-04T14:10:58.367Z,303.00
2023-01-04T14:12:05.714Z,303.00
2023-01-04T14:12:59.312Z,298.00
2023-01-04T14:13:58.298Z,296.00
2023-01-04T14:14:58.306Z,294.00
2023-01-04T14:15:58.324Z,294.00
2023-01-04T14:16:58.239Z,296.00
2023-01-04T14:17:58.225Z,296.00
2023-01-04T14:18:58.193Z,296.00
2023-01-04T14:19:58.231Z,294.00
2023-01-04T14:20:58.168Z,293.00
2023-01-04T14:21:58.135Z,292.00
2023-01-04T14:22:58.118Z,292.00
2023-01-04T14:23:58.097Z,294.00
2023-01-04T14:25:13.513Z,294.00
2023-01-04T14:25:59.071Z,296.00
2023-01-04T14:26:58.035Z,295.00
2023-01-04T14:27:58.011Z,295.00
2023-01-04T14:28:57.999Z,297.00
2023-01-04T14:29:57.963Z,295.00
2023-01-04T14:30:57.974Z,295.00
2023-01-04T14:31:57.921Z,297.00
2023-01-04T14:32:57.888Z,296.00
2023-01-04T14:33:57.855Z,296.00
2023-01-04T14:34:57.832Z,297.00
2023-01-04T14:35:57.799Z,297.00
2023-01-04T14:36:57.772Z,293.00
2023-01-04T14:37:57.746Z,293.00
2023-01-04T14:38:57.717Z,293.00
2023-01-04T14:39:57.694Z,292.00
2023-01-04T14:40:57.660Z,290.00
2023-01-04T14:41:57.747Z,291.00
2023-01-04T14:42:57.614Z,293.00
2023-01-04T14:43:57.588Z,293.00
2023-01-04T14:44:57.543Z,294.00
2023-01-04T14:45:57.509Z,293.00
2023-01-04T14:46:57.628Z,293.00
2023-01-04T14:47:57.449Z,291.00
2023-01-04T14:48:57.429Z,290.00
2023-01-04T14:49:57.406Z,289.00
2023-01-04T14:50:57.363Z,290.00
2023-01-04T14:51:57.326Z,290.00
2023-01-04T14:52:57.301Z,289.00
2023-01-04T14:53:57.267Z,291.00
2023-01-04T14:54:57.246Z,291.00
2023-01-04T14:55:57.203Z,293.00
2023-01-04T14:56:57.191Z,296.00
2023-01-04T14:57:57.156Z,298.00
2023-01-04T14:58:57.120Z,300.00
2023-01-04T14:59:57.099Z,299.00
2023-01-04T15:00:57.064Z,300.00
2023-01-04T15:01:57.141Z,298.00
2023-01-04T15:02:57.289Z,298.00
2023-01-04T15:03:57.051Z,298.00
2023-01-04T15:04:56.969Z,299.00
2023-01-04T15:05:56.931Z,299.00
2023-01-04T15:06:56.912Z,299.00
2023-01-04T15:07:56.880Z,297.00
2023-01-04T15:08:56.864Z,298.00
2023-01-04T15:09:56.836Z,297.00
2023-01-04T15:11:00.173Z,298.00
2023-01-04T15:11:56.788Z,299.00
2023-01-04T15:12:56.836Z,296.00
2023-01-04T15:13:56.740Z,297.00
2023-01-04T15:14:56.717Z,298.00
2023-01-04T15:15:56.732Z,296.00
2023-01-04T15:16:56.685Z,296.00
2023-01-04T15:17:56.652Z,297.00
2023-01-04T15:18:56.622Z,296.00
2023-01-04T15:19:56.603Z,294.00
2023-01-04T15:20:56.577Z,297.00
2023-01-04T15:21:56.548Z,295.00
2023-01-04T15:22:56.526Z,294.00
2023-01-04T15:23:56.492Z,294.00
2023-01-04T15:24:56.476Z,293.00
2023-01-04T15:25:56.447Z,294.00
2023-01-04T15:26:56.420Z,294.00
2023-01-04T15:27:56.413Z,292.00
2023-01-04T15:28:56.363Z,292.00
2023-01-04T15:29:56.356Z,291.00
2023-01-04T15:30:56.374Z,291.00
2023-01-04T15:31:56.304Z,291.00
2023-01-04T15:32:56.264Z,289.00
2023-01-04T15:33:56.221Z,290.00
2023-01-04T15:34:56.229Z,290.00
2023-01-04T15:35:56.166Z,291.00
2023-01-04T15:36:56.147Z,290.00
2023-01-04T15:37:56.125Z,292.00
2023-01-04T15:38:56.098Z,292.00
2023-01-04T15:40:01.930Z,293.00
2023-01-04T15:41:56.000Z,293.00
2023-01-04T15:42:55.971Z,294.00
2023-01-04T15:43:55.944Z,293.00
2023-01-04T15:44:55.913Z,293.00
2023-01-04T15:45:55.874Z,293.00
2023-01-04T15:46:55.903Z,292.00
2023-01-04T15:47:55.814Z,292.00
2023-01-04T15:48:55.795Z,291.00
2023-01-04T15:49:55.762Z,289.00
2023-01-04T15:51:55.703Z,294.00
2023-01-04T15:53:55.671Z,294.00
2023-01-04T16:01:55.644Z,295.00
2023-01-04T16:25:11.933Z,294.00
2023-01-04T17:05:54.083Z,296.00
2023-01-04T17:06:54.057Z,297.00
2023-01-04T17:07:54.036Z,297.00
2023-01-04T17:08:54.010Z,294.00
2023-01-04T17:09:54.044Z,293.00
2023-01-04T17:10:53.976Z,295.00
2023-01-04T17:12:53.940Z,300.00
2023-01-04T17:13:53.910Z,301.00
2023-01-04T17:15:40.770Z,301.00
2023-01-04T17:15:54.929Z,298.00
2023-01-04T17:16:53.891Z,298.00
2023-01-04T17:17:53.830Z,300.00
2023-01-04T17:18:53.811Z,300.00
2023-01-04T17:19:53.836Z,297.00
2023-01-04T17:20:53.767Z,296.00
2023-01-04T17:21:53.749Z,296.00
2023-01-04T17:22:53.721Z,301.00
2023-01-04T17:23:53.695Z,301.00
2023-01-04T17:24:53.682Z,299.00
2023-01-04T17:25:53.660Z,299.00
2023-01-04T17:26:53.636Z,298.00
2023-01-04T17:27:53.644Z,294.00
2023-01-04T17:28:53.565Z,295.00
2023-01-04T17:29:53.566Z,294.00
2023-01-04T17:30:53.521Z,295.00
2023-01-04T17:31:53.586Z,295.00
2023-01-04T17:32:53.481Z,296.00
2023-01-04T17:33:53.456Z,298.00
2023-01-04T17:34:53.421Z,297.00
2023-01-04T17:35:53.401Z,298.00
2023-01-04T17:36:53.370Z,298.00
2023-01-04T17:37:53.355Z,300.00
2023-01-04T17:38:53.334Z,301.00
2023-01-04T17:39:53.319Z,300.00
2023-01-04T17:40:53.284Z,303.00
2023-01-04T17:41:53.267Z,303.00
2023-01-04T17:42:53.246Z,301.00
2023-01-04T17:43:53.220Z,301.00
2023-01-04T17:44:53.197Z,301.00
2023-01-04T17:45:53.299Z,303.00
2023-01-04T17:46:53.152Z,303.00
2023-01-04T17:47:53.162Z,303.00
2023-01-04T17:49:17.926Z,304.00
2023-01-04T17:49:54.101Z,306.00
2023-01-04T17:50:53.062Z,310.00
2023-01-04T17:51:53.158Z,308.00
2023-01-04T17:52:53.016Z,304.00